Time;durP1;ratioP1;P1;durP2;ratioP2;P2;SDS_P1;SDS_P2;PMS_P1;PMS_P2;Temp;Humidity;BMP_temperature;BMP_pressure;BME280_temperature;BME280_humidity;BME280_pressure;Samples;Min_cycle;Max_cycle;Signal;HPM_P1;HPM_P2
2022/10/15 00:00:31;;;;;;;8.90;4.22;;;;;;;7.38;71.08;100186.81;5071278;28;20116;-65
2022/10/15 00:02:56;;;;;;;6.20;3.80;;;;;;;7.48;71.32;100226.38;5071231;28;20131;-63
2022/10/15 00:05:22;;;;;;;7.43;3.80;;;;;;;7.47;71.30;100235.88;5076010;28;20127;-65
2022/10/15 00:07:48;;;;;;;8.18;4.30;;;;;;;7.50;71.30;100232.38;5088857;28;20044;-65
2022/10/15 00:10:15;;;;;;;8.95;4.45;;;;;;;7.49;71.63;100236.69;5091111;28;20778;-66
2022/10/15 00:12:41;;;;;;;9.82;4.07;;;;;;;7.51;71.91;100234.09;5088577;28;20040;-65
2022/10/15 00:15:08;;;;;;;9.38;3.85;;;;;;;7.59;71.56;100225.34;5091099;28;20047;-66
2022/10/15 00:17:35;;;;;;;8.65;4.13;;;;;;;7.59;71.31;100233.09;5091496;28;20397;-64
2022/10/15 00:20:05;;;;;;;10.40;5.32;;;;;;;7.57;71.51;100231.41;5088902;28;20404;-65
2022/10/15 00:22:31;;;;;;;9.05;4.85;;;;;;;7.51;71.51;100227.19;5091249;28;20039;-65
2022/10/15 00:24:56;;;;;;;10.02;4.22;;;;;;;7.55;71.77;100228.00;5087716;28;20036;-64
2022/10/15 00:27:22;;;;;;;8.23;3.58;;;;;;;7.47;71.53;100222.94;5089170;28;20092;-65
2022/10/15 00:29:48;;;;;;;10.05;4.78;;;;;;;7.49;71.61;100228.06;5088477;28;20048;-65
2022/10/15 00:32:16;;;;;;;9.45;3.92;;;;;;;7.52;71.63;100234.06;5089615;28;20055;-66
2022/10/15 00:34:42;;;;;;;8.68;4.13;;;;;;;7.71;71.47;100228.63;5088674;28;20512;-66
2022/10/15 00:37:08;;;;;;;9.05;4.47;;;;;;;7.71;71.37;100226.91;5088565;28;20044;-66
2022/10/15 00:39:36;;;;;;;9.38;5.85;;;;;;;7.66;71.20;100232.16;5088785;28;20825;-65
2022/10/15 00:42:03;;;;;;;7.43;4.20;;;;;;;7.58;71.42;100226.25;5090590;28;20032;-66
2022/10/15 00:44:28;;;;;;;7.07;4.25;;;;;;;7.63;71.16;100228.75;5070748;28;20087;-65
2022/10/15 00:47:06;;;;;;;9.70;4.63;;;;;;;7.56;71.51;100227.97;5089518;28;20097;-66
2022/10/15 00:49:39;;;;;;;8.57;4.28;;;;;;;7.48;71.51;100235.00;5056190;28;20089;-65
2022/10/15 00:52:43;;;;;;;7.93;4.50;;;;;;;7.51;71.52;100228.91;5090596;28;20062;-65
2022/10/15 00:55:21;;;;;;;8.43;4.35;;;;;;;7.52;71.41;100236.66;5076368;28;20134;-65
2022/10/15 00:57:48;;;;;;;7.63;4.20;;;;;;;7.63;71.41;100239.97;5085881;28;20046;-66
2022/10/15 01:00:16;;;;;;;9.90;4.53;;;;;;;7.73;71.11;100237.25;5080841;28;20092;-64
2022/10/15 01:02:43;;;;;;;11.23;4.93;;;;;;;7.66;71.09;100231.28;5089226;28;20407;-65
2022/10/15 01:05:09;;;;;;;11.13;4.43;;;;;;;7.39;70.96;100200.59;5088605;28;20044;-64
2022/10/15 01:07:37;;;;;;;8.27;4.65;;;;;;;7.50;71.29;100235.81;5072220;28;20134;-64
2022/10/15 01:10:05;;;;;;;8.93;4.35;;;;;;;7.55;71.47;100241.78;5089032;28;20422;-64
2022/10/15 01:12:37;;;;;;;9.80;4.63;;;;;;;7.57;71.43;100236.59;5081008;28;20063;-64
2022/10/15 01:15:23;;;;;;;10.38;4.95;;;;;;;7.64;71.25;100228.72;5069949;28;20157;-65
2022/10/15 01:17:58;;;;;;;7.20;4.40;;;;;;;7.68;71.06;100239.91;5081591;28;20427;-64
2022/10/15 01:20:48;;;;;;;9.13;4.40;;;;;;;7.81;71.13;100228.47;5071215;28;20071;-64
2022/10/15 01:23:42;;;;;;;12.73;5.15;;;;;;;7.86;70.84;100238.75;5090467;28;20876;-65
2022/10/15 01:26:26;;;;;;;7.05;4.22;;;;;;;7.93;70.55;100243.00;5089783;28;20519;-66
2022/10/15 01:29:05;;;;;;;11.73;4.93;;;;;;;7.93;70.29;100249.03;5087966;28;20036;-66
2022/10/15 01:31:57;;;;;;;9.90;4.55;;;;;;;7.86;70.47;100242.22;5087164;28;20495;-64
2022/10/15 01:34:50;;;;;;;10.15;4.10;;;;;;;7.85;70.44;100244.84;5086355;28;20467;-65
2022/10/15 01:37:23;;;;;;;8.98;4.13;;;;;;;7.87;70.24;100240.47;5087759;28;20047;-64
2022/10/15 01:40:02;;;;;;;8.25;5.30;;;;;;;7.64;70.36;100231.31;5086867;28;20048;-66
2022/10/15 01:42:43;;;;;;;6.88;4.05;;;;;;;7.85;70.58;100252.63;5070849;28;20112;-64
2022/10/15 01:45:13;;;;;;;10.60;4.95;;;;;;;7.90;70.15;100246.47;5087982;28;20043;-64
2022/10/15 01:48:01;;;;;;;9.60;4.88;;;;;;;7.82;70.06;100248.31;5073525;28;20063;-64
2022/10/15 01:50:27;;;;;;;;;;;;;;;7.68;70.75;100249.41;5071047;28;20122;-65
2022/10/15 01:52:54;;;;;;;9.98;4.38;;;;;;;7.55;70.91;100248.69;5071478;28;20037;-65
2022/10/15 01:55:21;;;;;;;11.52;4.80;;;;;;;7.61;70.67;100249.47;5070356;28;20028;-65
2022/10/15 01:57:48;;;;;;;11.38;4.90;;;;;;;7.55;70.74;100253.88;5071629;28;20411;-65
2022/10/15 02:00:15;;;;;;;12.40;4.45;;;;;;;7.58;70.90;100257.28;5068072;28;20068;-66
2022/10/15 02:02:41;;;;;;;9.52;4.82;;;;;;;7.66;71.22;100258.03;5068092;28;20573;-65
2022/10/15 02:05:31;;;;;;;11.25;4.60;;;;;;;7.73;71.04;100252.78;5084915;28;20040;-65
2022/10/15 02:08:11;;;;;;;10.75;4.93;;;;;;;7.59;70.52;100227.91;5089076;28;20075;-65
2022/10/15 02:11:03;;;;;;;9.70;4.65;;;;;;;7.66;70.72;100257.16;5070967;28;20044;-66
2022/10/15 02:13:56;;;;;;;10.05;4.55;;;;;;;7.68;70.60;100259.75;5081457;28;20056;-66
2022/10/15 02:16:44;;;;;;;9.60;4.20;;;;;;;7.78;70.27;100253.56;5090065;28;20427;-63
2022/10/15 02:19:50;;;;;;;10.38;4.80;;;;;;;7.62;70.66;100258.09;5068997;28;20047;-64
2022/10/15 02:22:24;;;;;;;11.68;5.38;;;;;;;7.54;70.89;100260.75;5061753;28;20041;-64
2022/10/15 02:25:03;;;;;;;9.80;4.00;;;;;;;7.61;70.46;100259.81;5062975;28;20152;-65
2022/10/15 02:27:32;;;;;;;8.73;4.53;;;;;;;7.71;70.12;100264.88;5067877;28;20119;-63
2022/10/15 02:30:00;;;;;;;7.88;4.43;;;;;;;7.64;70.33;100270.13;5069022;28;20043;-65
2022/10/15 02:32:27;;;;;;;8.63;4.70;;;;;;;7.38;70.42;100229.97;5076307;28;20079;-64
2022/10/15 02:34:54;;;;;;;12.45;5.78;;;;;;;7.31;70.84;100238.66;5086970;28;20339;-65
2022/10/15 02:37:23;;;;;;;9.05;4.25;;;;;;;7.61;71.10;100277.94;5068419;28;20073;-64
2022/10/15 02:39:49;;;;;;;7.28;4.47;;;;;;;7.76;70.76;100268.25;5088251;28;20039;-65
2022/10/15 02:42:16;;;;;;;7.90;3.95;;;;;;;7.78;70.38;100274.28;5053170;28;20458;-65
2022/10/15 02:44:42;;;;;;;7.78;4.30;;;;;;;7.74;70.40;100278.66;5070959;28;20069;-65
2022/10/15 02:47:09;;;;;;;11.55;4.38;;;;;;;7.73;70.48;100276.06;5086570;28;20040;-65
2022/10/15 02:49:35;;;;;;;7.68;4.10;;;;;;;7.81;70.21;100271.63;5069301;28;20044;-65
2022/10/15 02:52:02;;;;;;;10.02;4.90;;;;;;;7.87;70.19;100279.31;5077828;28;20043;-65
2022/10/15 02:54:28;;;;;;;12.52;5.07;;;;;;;7.93;70.02;100285.28;5070904;28;20040;-64
2022/10/15 02:56:54;;;;;;;9.20;5.05;;;;;;;7.94;69.64;100278.38;5085204;28;20056;-63
2022/10/15 02:59:20;;;;;;;7.72;3.72;;;;;;;7.93;69.51;100276.66;5076617;28;20534;-65
2022/10/15 03:01:47;;;;;;;9.68;4.38;;;;;;;7.94;69.72;100273.19;5089145;28;20044;-65
2022/10/15 03:04:14;;;;;;;9.60;4.47;;;;;;;8.12;69.62;100279.81;5091484;28;20089;-64
2022/10/15 03:06:40;;;;;;;6.95;3.97;;;;;;;8.19;69.13;100284.88;5094691;28;20041;-65
2022/10/15 03:09:07;;;;;;;7.88;4.00;;;;;;;8.04;68.89;100262.69;5088098;28;20542;-65
2022/10/15 03:11:32;;;;;;;13.57;4.65;;;;;;;8.18;69.00;100283.19;5084212;28;20482;-65
2022/10/15 03:14:00;;;;;;;9.55;4.55;;;;;;;8.06;69.06;100293.69;5057250;28;20040;-65
2022/10/15 03:16:28;;;;;;;8.63;4.15;;;;;;;8.00;69.23;100289.50;5074292;28;20036;-65
2022/10/15 03:18:54;;;;;;;9.98;4.70;;;;;;;8.05;68.82;100279.94;5091020;28;20047;-66
2022/10/15 03:21:20;;;;;;;9.18;4.30;;;;;;;8.14;68.79;100285.84;5092342;28;20093;-65
2022/10/15 03:23:46;;;;;;;12.55;4.60;;;;;;;7.93;68.98;100241.25;5074333;28;20062;-65
2022/10/15 03:26:19;;;;;;;8.70;4.68;;;;;;;7.81;69.14;100246.59;5089035;28;20507;-64
2022/10/15 03:28:45;;;;;;;7.47;4.40;;;;;;;7.94;68.95;100263.69;5089906;28;20048;-64
2022/10/15 03:31:18;;;;;;;9.85;4.70;;;;;;;8.08;69.03;100297.13;5090328;28;20065;-65
2022/10/15 03:33:47;;;;;;;8.63;4.07;;;;;;;8.01;68.97;100290.31;5090811;28;20069;-66
2022/10/15 03:36:15;;;;;;;8.90;4.30;;;;;;;7.95;69.34;100278.34;5073654;28;20130;-64
2022/10/15 03:38:41;;;;;;;8.07;4.10;;;;;;;8.04;69.14;100293.75;5091903;28;20039;-64
2022/10/15 03:41:11;;;;;;;9.30;4.28;;;;;;;8.08;68.88;100292.81;5090297;28;20048;-64
2022/10/15 03:43:39;;;;;;;9.88;4.55;;;;;;;8.06;68.84;100289.38;5091802;28;20068;-66
2022/10/15 03:46:05;;;;;;;8.68;4.63;;;;;;;8.03;69.28;100292.03;5090401;28;20071;-65
2022/10/15 03:48:36;;;;;;;9.75;4.75;;;;;;;7.92;69.48;100288.72;5089541;28;20489;-65
2022/10/15 03:51:01;;;;;;;9.30;4.57;;;;;;;7.91;69.32;100291.34;5072399;28;20131;-65
2022/10/15 03:53:28;;;;;;;8.70;4.75;;;;;;;7.90;69.52;100294.81;5090598;28;20040;-65
2022/10/15 03:55:54;;;;;;;7.30;4.40;;;;;;;7.79;69.54;100286.34;5089993;28;20028;-65
2022/10/15 03:58:19;;;;;;;8.27;4.72;;;;;;;7.85;69.79;100283.69;5072030;28;20105;-65
2022/10/15 04:00:55;;;;;;;6.88;4.40;;;;;;;7.97;69.54;100299.03;5088959;28;20093;-64
2022/10/15 04:03:21;;;;;;;8.05;4.78;;;;;;;7.96;69.13;100282.63;5068674;28;20074;-65
2022/10/15 04:05:51;;;;;;;9.30;4.60;;;;;;;7.58;69.26;100227.97;5090238;28;20032;-65
2022/10/15 04:08:19;;;;;;;11.88;4.72;;;;;;;7.93;69.33;100300.81;5089211;28;20067;-65
2022/10/15 04:10:45;;;;;;;9.90;4.80;;;;;;;7.98;68.90;100296.41;5071374;28;20763;-65
2022/10/15 04:13:11;;;;;;;12.63;4.80;;;;;;;7.69;69.15;100257.16;5072188;28;20089;-64
2022/10/15 04:15:40;;;;;;;7.85;4.22;;;;;;;7.87;69.24;100303.47;5073378;28;20054;-65
2022/10/15 04:18:10;;;;;;;7.70;4.20;;;;;;;7.85;69.45;100318.16;5088217;28;20097;-65
2022/10/15 04:20:36;;;;;;;9.90;4.40;;;;;;;7.88;69.32;100312.97;5072744;28;20039;-65
2022/10/15 04:23:15;;;;;;;7.43;4.25;;;;;;;7.96;69.13;100305.06;5069544;28;20048;-64
2022/10/15 04:25:46;;;;;;;8.90;4.20;;;;;;;8.07;68.84;100306.63;5089556;28;20446;-66
2022/10/15 04:28:12;;;;;;;8.18;5.03;;;;;;;7.89;68.55;100265.50;5087147;28;20048;-65
2022/10/15 04:30:38;;;;;;;6.85;3.85;;;;;;;8.09;68.78;100302.31;5089760;28;20043;-65
2022/10/15 04:33:09;;;;;;;7.20;3.80;;;;;;;8.18;68.41;100300.44;5072325;28;20059;-65
2022/10/15 04:35:35;;;;;;;9.80;4.82;;;;;;;8.19;68.22;100307.34;5089099;28;20062;-66
2022/10/15 04:38:07;;;;;;;8.30;4.20;;;;;;;8.12;68.29;100311.75;5071108;28;20043;-64
2022/10/15 04:41:05;;;;;;;10.10;4.70;;;;;;;8.21;68.44;100306.47;5090217;28;20074;-65
2022/10/15 04:44:00;;;;;;;7.88;4.18;;;;;;;8.06;68.34;100311.81;5066596;28;20059;-66
2022/10/15 04:46:28;;;;;;;10.82;4.40;;;;;;;8.19;68.33;100304.75;5071725;28;20040;-66
2022/10/15 04:48:57;;;;;;;9.98;4.18;;;;;;;8.27;68.18;100308.94;5089138;28;20089;-65
2022/10/15 04:51:25;;;;;;;10.27;4.00;;;;;;;8.24;68.11;100284.81;5088801;28;20052;-66
2022/10/15 04:54:17;;;;;;;9.98;4.15;;;;;;;8.45;67.62;100310.44;5089310;28;20076;-64
2022/10/15 04:56:55;;;;;;;11.10;4.63;;;;;;;8.46;67.89;100319.91;5073203;28;20040;-65
2022/10/15 04:59:21;;;;;;;11.00;5.40;;;;;;;8.47;67.63;100319.03;5084556;28;20039;-65
2022/10/15 05:02:05;;;;;;;8.93;4.75;;;;;;;8.42;67.60;100319.13;5081960;28;20040;-65
2022/10/15 05:04:32;;;;;;;7.75;4.50;;;;;;;8.49;67.57;100322.44;5071930;28;20420;-64
2022/10/15 05:06:59;;;;;;;9.55;4.32;;;;;;;8.37;67.27;100313.13;5089448;28;20487;-66
2022/10/15 05:09:25;;;;;;;9.02;4.50;;;;;;;8.34;67.40;100325.28;5072123;28;20048;-65
2022/10/15 05:11:51;;;;;;;9.20;4.70;;;;;;;8.41;67.33;100317.41;5088868;28;20119;-64
2022/10/15 05:14:17;;;;;;;7.25;3.97;;;;;;;8.56;67.17;100326.66;5084965;28;20477;-65
2022/10/15 05:16:51;;;;;;;8.80;4.13;;;;;;;8.53;66.92;100321.50;5078480;28;20039;-65
2022/10/15 05:19:17;;;;;;;7.22;4.10;;;;;;;8.25;66.82;100287.41;5089055;28;20092;-66
2022/10/15 05:21:44;;;;;;;7.10;4.32;;;;;;;8.40;66.98;100326.06;5087747;28;20044;-65
2022/10/15 05:24:20;;;;;;;11.15;5.10;;;;;;;8.50;66.49;100329.34;5089026;28;20071;-66
2022/10/15 05:26:57;;;;;;;7.18;3.67;;;;;;;8.57;66.27;100320.59;5072589;28;20068;-64
2022/10/15 05:29:27;;;;;;;9.10;3.88;;;;;;;8.58;66.13;100318.88;5071867;28;20120;-63
2022/10/15 05:31:53;;;;;;;11.95;4.50;;;;;;;8.50;66.13;100327.63;5069541;28;20804;-65
2022/10/15 05:34:25;;;;;;;;;;;;;;;8.52;65.90;100326.75;5087824;28;20063;-64
2022/10/15 05:37:01;;;;;;;7.78;3.92;;;;;;;8.46;65.92;100325.09;5072745;28;19920;-65
2022/10/15 05:39:28;;;;;;;7.20;3.88;;;;;;;8.20;65.92;100301.28;5080020;28;20040;-64
2022/10/15 05:41:54;;;;;;;7.35;3.92;;;;;;;8.39;65.87;100331.25;5050487;28;20044;-64
2022/10/15 05:44:28;;;;;;;15.07;4.47;;;;;;;8.44;65.70;100329.44;5088588;28;20043;-65
2022/10/15 05:46:54;;;;;;;14.35;4.72;;;;;;;8.09;65.07;100285.91;5088247;28;20036;-64
2022/10/15 05:49:22;;;;;;;12.20;4.78;;;;;;;8.47;65.64;100335.44;5088230;28;20048;-64
2022/10/15 05:52:08;;;;;;;6.65;3.90;;;;;;;8.58;65.30;100334.44;5085755;28;20061;-65
2022/10/15 05:54:57;;;;;;;13.20;4.65;;;;;;;8.45;65.08;100332.00;5085373;28;20055;-65
2022/10/15 05:57:22;;;;;;;5.53;3.53;;;;;;;8.54;65.21;100340.50;5087949;28;20043;-66
2022/10/15 05:59:49;;;;;;;8.10;4.22;;;;;;;8.61;64.72;100332.63;5084026;28;20027;-67
2022/10/15 06:02:15;;;;;;;8.77;3.97;;;;;;;8.53;64.39;100339.66;5089151;28;20062;-66
2022/10/15 06:04:42;;;;;;;6.97;3.78;;;;;;;8.62;64.49;100334.34;5087903;28;20439;-65
2022/10/15 06:07:08;;;;;;;11.07;4.30;;;;;;;8.75;63.70;100337.56;5087979;28;20070;-65
2022/10/15 06:09:34;;;;;;;7.95;4.30;;;;;;;8.79;63.50;100340.09;5089432;28;20427;-65
2022/10/15 06:11:59;;;;;;;15.95;4.78;;;;;;;8.76;63.31;100339.31;5087686;28;20047;-63
2022/10/15 06:14:25;;;;;;;8.13;4.38;;;;;;;8.71;63.32;100346.28;5070548;28;20044;-65
2022/10/15 06:16:53;;;;;;;10.00;5.47;;;;;;;8.65;63.71;100346.38;5088054;28;20064;-64
2022/10/15 06:19:19;;;;;;;11.75;5.93;;;;;;;8.57;63.22;100341.34;5098773;28;20596;-61
2022/10/15 06:21:45;;;;;;;14.57;7.53;;;;;;;8.59;63.47;100341.28;5086978;28;20042;-65
2022/10/15 06:24:11;;;;;;;14.45;6.30;;;;;;;8.64;63.49;100342.94;5087593;28;20032;-66
2022/10/15 06:26:37;;;;;;;15.52;6.50;;;;;;;8.73;63.20;100329.00;5086664;28;20048;-65
2022/10/15 06:29:03;;;;;;;13.93;6.43;;;;;;;8.89;62.88;100335.63;5087831;28;20423;-68
2022/10/15 06:31:31;;;;;;;12.68;6.28;;;;;;;8.84;62.74;100307.19;5086840;28;20048;-66
2022/10/15 06:33:57;;;;;;;17.30;6.93;;;;;;;9.09;62.43;100335.28;5085757;28;20035;-64
2022/10/15 06:36:25;;;;;;;12.55;5.72;;;;;;;9.02;61.68;100338.84;5085964;28;20032;-66
2022/10/15 06:38:51;;;;;;;12.80;5.00;;;;;;;9.03;62.02;100337.97;5091932;28;20040;-62
2022/10/15 06:41:17;;;;;;;14.82;5.28;;;;;;;9.03;61.19;100346.63;5091924;28;20047;-62
2022/10/15 06:43:44;;;;;;;18.95;5.38;;;;;;;9.07;61.66;100332.69;5092755;28;20046;-62
2022/10/15 06:46:10;;;;;;;7.28;4.80;;;;;;;9.09;60.62;100317.13;5082759;28;20036;-62
2022/10/15 06:48:36;;;;;;;9.25;4.40;;;;;;;9.01;60.99;100314.66;5091198;28;20050;-62
2022/10/15 06:51:03;;;;;;;9.07;3.78;;;;;;;9.21;59.97;100348.88;5090865;28;20035;-62
2022/10/15 06:53:29;;;;;;;4.90;3.00;;;;;;;9.07;59.76;100352.59;5090286;28;20075;-62
2022/10/15 06:55:57;;;;;;;6.38;2.90;;;;;;;9.04;60.04;100355.25;5074295;28;20024;-63
2022/10/15 06:58:23;;;;;;;6.18;2.90;;;;;;;9.12;59.93;100350.78;5091398;28;20045;-63
2022/10/15 07:00:49;;;;;;;8.88;3.10;;;;;;;9.10;59.30;100358.59;5090711;28;20050;-63
2022/10/15 07:03:14;;;;;;;8.82;2.53;;;;;;;9.07;59.56;100360.38;5090980;28;20048;-63
2022/10/15 07:05:40;;;;;;;5.95;3.05;;;;;;;8.99;59.13;100360.53;5098472;28;20039;-64
2022/10/15 07:08:06;;;;;;;8.90;2.47;;;;;;;8.93;59.30;100355.44;5100883;28;20048;-63
2022/10/15 07:10:34;;;;;;;8.23;2.92;;;;;;;8.96;59.42;100354.50;5091565;28;20507;-64
2022/10/15 07:13:01;;;;;;;8.80;2.80;;;;;;;8.85;58.97;100326.19;5088979;28;20423;-62
2022/10/15 07:15:27;;;;;;;13.55;2.88;;;;;;;9.15;58.64;100363.72;5090527;28;20036;-61
2022/10/15 07:18:01;;;;;;;5.63;2.70;;;;;;;9.10;58.92;100365.53;5090688;28;20052;-64
2022/10/15 07:20:29;;;;;;;14.35;3.47;;;;;;;8.91;58.91;100342.50;5089537;28;20131;-63
2022/10/15 07:22:59;;;;;;;7.43;2.88;;;;;;;9.10;59.00;100370.72;5071180;28;20134;-65
2022/10/15 07:25:28;;;;;;;13.15;2.85;;;;;;;9.07;58.99;100375.94;5083705;28;20184;-64
2022/10/15 07:27:55;;;;;;;7.35;3.10;;;;;;;9.13;58.77;100363.72;5073906;28;20471;-64
2022/10/15 07:30:22;;;;;;;8.75;2.55;;;;;;;9.15;58.52;100359.38;5090985;28;20123;-62
2022/10/15 07:32:50;;;;;;;6.70;2.50;;;;;;;9.14;58.65;100374.97;5101597;28;20104;-64
2022/10/15 07:35:16;;;;;;;7.78;3.42;;;;;;;9.20;59.04;100374.88;5097210;28;20036;-63
2022/10/15 07:37:42;;;;;;;5.78;2.85;;;;;;;9.33;58.65;100378.94;5090244;28;20036;-66
2022/10/15 07:40:09;;;;;;;6.32;3.10;;;;;;;9.46;58.45;100383.03;5086522;28;20032;-67
2022/10/15 07:42:37;;;;;;;7.30;3.10;;;;;;;9.56;58.29;100381.97;5081384;28;20036;-61
2022/10/15 07:45:03;;;;;;;7.03;3.42;;;;;;;9.59;58.13;100379.31;5084708;28;20042;-60
2022/10/15 07:47:29;;;;;;;7.88;3.20;;;;;;;9.67;58.34;100386.97;5087524;28;20446;-56
2022/10/15 07:49:55;;;;;;;13.25;3.97;;;;;;;9.73;58.16;100389.44;5090151;28;20040;-54
2022/10/15 07:52:24;;;;;;;12.95;3.45;;;;;;;9.76;58.20;100371.19;5086613;28;20048;-59
2022/10/15 07:54:56;;;;;;;9.02;3.40;;;;;;;10.02;57.13;100391.44;5040483;28;20040;-56
2022/10/15 07:57:22;;;;;;;9.15;4.03;;;;;;;9.95;57.41;100384.63;5083797;28;20557;-57
2022/10/15 07:59:49;;;;;;;8.38;3.38;;;;;;;9.90;57.17;100381.28;5082318;28;20059;-56
2022/10/15 08:02:15;;;;;;;13.32;3.75;;;;;;;10.00;57.25;100380.22;5090392;28;20101;-55
2022/10/15 08:04:41;;;;;;;11.23;4.35;;;;;;;9.82;57.26;100337.31;5090500;28;20040;-57
2022/10/15 08:07:07;;;;;;;14.38;4.18;;;;;;;10.03;57.25;100391.41;5091452;28;20042;-59
2022/10/15 08:09:36;;;;;;;11.10;3.83;;;;;;;10.08;56.95;100393.91;5091429;28;20051;-57
2022/10/15 08:12:02;;;;;;;12.32;4.30;;;;;;;10.12;57.10;100357.44;5091239;28;20040;-57
2022/10/15 08:14:28;;;;;;;14.95;3.97;;;;;;;10.51;56.76;100394.72;5090166;28;20435;-59
2022/10/15 08:16:53;;;;;;;13.82;3.35;;;;;;;10.57;56.71;100384.16;5091416;28;20031;-55
2022/10/15 08:19:19;;;;;;;15.13;3.85;;;;;;;10.63;56.13;100389.22;5091141;28;20089;-57
2022/10/15 08:21:48;;;;;;;6.93;3.97;;;;;;;10.56;56.68;100399.81;5090245;28;20097;-59
2022/10/15 08:24:13;;;;;;;9.73;4.22;;;;;;;10.61;56.65;100396.22;5084693;28;20508;-58
2022/10/15 08:26:40;;;;;;;12.45;3.88;;;;;;;10.65;56.10;100393.53;5072883;28;20036;-57
2022/10/15 08:29:06;;;;;;;11.75;4.03;;;;;;;10.71;56.14;100390.81;5073085;28;20039;-58
2022/10/15 08:31:31;;;;;;;9.10;3.50;;;;;;;10.79;56.14;100397.53;5091172;28;20057;-58
2022/10/15 08:34:03;;;;;;;8.63;4.40;;;;;;;10.81;55.45;100395.75;5089895;28;20574;-59
2022/10/15 08:36:31;;;;;;;12.60;3.90;;;;;;;10.82;55.34;100389.66;5090734;28;20064;-56
2022/10/15 08:38:57;;;;;;;12.55;3.58;;;;;;;10.88;55.40;100386.91;5070896;28;20047;-58
2022/10/15 08:41:31;;;;;;;21.35;4.47;;;;;;;10.97;55.24;100394.50;5070680;28;20071;-58
2022/10/15 08:43:58;;;;;;;11.45;3.97;;;;;;;11.02;54.98;100395.22;5072381;28;20469;-54
2022/10/15 08:46:41;;;;;;;17.60;4.25;;;;;;;11.00;54.83;100398.75;5089424;28;20147;-55
2022/10/15 08:49:20;;;;;;;13.05;4.10;;;;;;;11.20;53.99;100393.06;5070382;28;20040;-57
2022/10/15 08:51:52;;;;;;;14.23;4.00;;;;;;;11.19;54.79;100402.63;5069200;28;20044;-57
2022/10/15 08:54:19;;;;;;;8.45;3.88;;;;;;;11.27;54.05;100395.47;5069444;28;20037;-58
2022/10/15 08:57:02;;;;;;;7.05;3.90;;;;;;;11.28;53.98;100404.97;5071036;28;20579;-57
2022/10/15 08:59:58;;;;;;;10.18;4.00;;;;;;;10.93;53.11;100359.03;5072139;28;20067;-55
2022/10/15 09:02:42;;;;;;;12.10;3.65;;;;;;;10.88;53.11;100358.31;5082902;28;20042;-57
2022/10/15 09:05:43;;;;;;;10.30;3.72;;;;;;;11.04;53.03;100388.22;5089159;28;20522;-57
2022/10/15 09:08:22;;;;;;;6.65;3.75;;;;;;;11.08;52.68;100375.16;5088785;28;20040;-58
2022/10/15 09:10:53;;;;;;;7.13;3.40;;;;;;;11.34;52.80;100380.53;5090457;28;20088;-57
2022/10/15 09:13:39;;;;;;;13.80;4.03;;;;;;;11.40;52.64;100385.59;5059882;28;20400;-55
2022/10/15 09:16:21;;;;;;;11.32;4.10;;;;;;;11.51;52.42;100387.91;5086402;28;20079;-58
2022/10/15 09:18:51;;;;;;;12.38;3.33;;;;;;;11.76;51.99;100386.38;5088931;28;20507;-57
2022/10/15 09:21:20;;;;;;;6.20;3.03;;;;;;;11.71;51.34;100386.47;5102433;28;20040;-55
2022/10/15 09:23:46;;;;;;;;;;;;;;;11.70;51.44;100386.50;5068651;28;20048;-57
2022/10/15 09:26:12;;;;;;;5.85;3.42;;;;;;;11.81;51.29;100385.34;5088104;28;20395;-58
2022/10/15 09:29:00;;;;;;;7.25;3.50;;;;;;;11.81;51.33;100377.53;5086489;28;20426;-59
2022/10/15 09:31:42;;;;;;;6.82;3.30;;;;;;;11.69;51.15;100393.47;5079388;28;20599;-58
2022/10/15 09:34:34;;;;;;;6.47;3.00;;;;;;;11.18;50.91;100353.19;5086288;28;20534;-58
2022/10/15 09:37:08;;;;;;;10.57;3.30;;;;;;;11.35;51.21;100392.66;5085193;28;20032;-54
2022/10/15 09:40:00;;;;;;;6.28;3.25;;;;;;;11.32;51.32;100382.31;5072653;28;20051;-50
2022/10/15 09:42:25;;;;;;;5.65;2.83;;;;;;;11.28;51.38;100383.31;5082347;28;20044;-54
2022/10/15 09:44:52;;;;;;;9.73;3.10;;;;;;;11.21;51.22;100398.22;5088267;28;20120;-50
2022/10/15 09:47:23;;;;;;;8.95;4.82;;;;;;;11.23;51.03;100395.56;5088340;28;20036;-53
2022/10/15 09:49:51;;;;;;;6.18;3.20;;;;;;;11.27;50.97;100394.59;5087221;28;20097;-54
2022/10/15 09:52:17;;;;;;;7.63;3.80;;;;;;;11.55;51.14;100399.94;5088451;28;20660;-55
2022/10/15 09:55:12;;;;;;;10.95;4.75;;;;;;;11.60;50.90;100385.91;5094040;28;20068;-56
2022/10/15 09:57:39;;;;;;;14.90;4.57;;;;;;;11.56;50.86;100391.25;5087304;28;20043;-53
2022/10/15 10:00:09;;;;;;;14.68;6.20;;;;;;;11.47;51.31;100387.13;5086575;28;20040;-55
2022/10/15 10:02:42;;;;;;;13.23;5.43;;;;;;;11.47;50.97;100392.31;5072176;28;20097;-57
2022/10/15 10:05:27;;;;;;;10.05;5.55;;;;;;;11.24;51.94;100390.34;5088165;28;20427;-58
2022/10/15 10:08:10;;;;;;;12.98;5.75;;;;;;;11.12;52.29;100393.25;5085388;28;20044;-52
2022/10/15 10:10:37;;;;;;;13.48;5.93;;;;;;;11.03;52.20;100389.13;5082964;28;20089;-55
2022/10/15 10:13:06;;;;;;;15.90;6.47;;;;;;;10.98;52.29;100393.59;5083949;28;20088;-52
2022/10/15 10:15:35;;;;;;;19.13;6.72;;;;;;;10.97;52.03;100384.09;5080412;28;20067;-56
2022/10/15 10:18:01;;;;;;;14.77;6.03;;;;;;;11.05;52.37;100394.28;5083228;28;20047;-54
2022/10/15 10:20:29;;;;;;;16.52;6.00;;;;;;;11.11;51.70;100391.53;5088695;28;20696;-54
2022/10/15 10:22:59;;;;;;;18.15;5.53;;;;;;;11.16;52.60;100394.00;5054065;28;20040;-54
2022/10/15 10:25:41;;;;;;;14.57;5.00;;;;;;;11.07;51.96;100386.44;5073025;28;20079;-56
2022/10/15 10:28:12;;;;;;;14.07;4.25;;;;;;;11.10;52.34;100388.97;5087072;28;20148;-57
2022/10/15 10:30:51;;;;;;;14.43;4.82;;;;;;;11.19;52.39;100389.59;5071382;28;20131;-57
2022/10/15 10:33:30;;;;;;;10.32;3.60;;;;;;;11.16;52.18;100381.84;5076017;28;20055;-55
2022/10/15 10:35:56;;;;;;;6.93;3.38;;;;;;;11.20;51.84;100391.28;5088999;28;20036;-53
2022/10/15 10:38:37;;;;;;;7.50;3.65;;;;;;;11.11;52.65;100386.31;5093292;28;20040;-52
2022/10/15 10:41:08;;;;;;;10.23;3.50;;;;;;;11.15;52.61;100385.34;5089454;28;20044;-55
2022/10/15 10:43:39;;;;;;;8.38;3.70;;;;;;;11.12;52.65;100389.78;5083615;28;20040;-57
2022/10/15 10:46:13;;;;;;;10.70;5.32;;;;;;;11.22;52.43;100380.84;5074252;28;20046;-55
2022/10/15 10:48:47;;;;;;;9.98;3.75;;;;;;;11.36;51.99;100387.41;5080267;28;20461;-54
2022/10/15 10:51:18;;;;;;;12.82;3.70;;;;;;;11.41;52.05;100380.31;5083722;28;20050;-58
2022/10/15 10:54:03;;;;;;;8.43;3.40;;;;;;;11.13;52.53;100353.31;5086585;28;20043;-55
2022/10/15 10:56:34;;;;;;;;;;;;;;;11.27;52.66;100381.59;5082948;28;20034;-56
2022/10/15 10:59:13;;;;;;;13.43;3.28;;;;;;;11.11;53.03;100383.72;5067295;28;20334;-55
2022/10/15 11:01:41;;;;;;;8.65;3.08;;;;;;;11.00;53.14;100385.75;5086694;28;20086;-54
2022/10/15 11:04:34;;;;;;;10.38;4.00;;;;;;;10.98;53.19;100378.00;5085241;28;20169;-58
2022/10/15 11:07:05;;;;;;;8.45;3.17;;;;;;;11.01;53.14;100385.72;5080476;28;20076;-54
2022/10/15 11:09:59;;;;;;;6.82;3.53;;;;;;;11.00;53.53;100384.00;5081668;28;20084;-56
2022/10/15 11:12:46;;;;;;;8.05;3.30;;;;;;;10.98;53.32;100390.16;5085034;28;20036;-55
2022/10/15 11:15:30;;;;;;;10.60;3.58;;;;;;;10.99;53.84;100382.28;5087481;28;20122;-55
2022/10/15 11:18:33;;;;;;;9.50;4.32;;;;;;;11.13;53.21;100391.50;5081280;28;20044;-54
2022/10/15 11:21:08;;;;;;;8.90;4.10;;;;;;;11.24;53.31;100386.88;5075922;28;20547;-54
2022/10/15 11:23:56;;;;;;;9.63;3.72;;;;;;;11.29;53.42;100379.81;5081719;28;20036;-54
2022/10/15 11:26:43;;;;;;;5.95;3.53;;;;;;;11.43;52.74;100375.94;5085512;28;20670;-57
2022/10/15 11:29:14;;;;;;;10.75;3.90;;;;;;;11.58;52.71;100337.34;5099359;28;20427;-54
2022/10/15 11:31:49;;;;;;;10.68;4.78;;;;;;;11.86;52.07;100364.38;5087508;28;20059;-55
2022/10/15 11:34:30;;;;;;;11.65;4.63;;;;;;;12.00;52.29;100377.84;5085648;28;20075;-56
2022/10/15 11:37:06;;;;;;;8.65;3.97;;;;;;;12.38;51.58;100374.09;5071731;28;20147;-57
2022/10/15 11:39:54;;;;;;;12.27;4.50;;;;;;;12.42;50.90;100357.44;5083802;28;20043;-52
2022/10/15 11:42:49;;;;;;;10.35;4.15;;;;;;;12.57;50.64;100374.38;5088870;28;20518;-53
2022/10/15 11:45:24;;;;;;;10.93;4.43;;;;;;;12.66;50.44;100379.31;5079628;28;20052;-55
2022/10/15 11:47:59;;;;;;;12.55;5.20;;;;;;;12.80;50.37;100379.72;5091094;28;20096;-58
2022/10/15 11:50:56;;;;;;;12.13;4.68;;;;;;;12.89;50.18;100373.34;5070819;28;20500;-57